sensor_id;sensor_type;location;lat;lon;timestamp;P1;durP1;ratioP1;P2;durP2;ratioP2
59649;SDS011;46162;57.568;25.814;2023-11-21T00:00:11;12.98;;;5.13;;
59649;SDS011;46162;57.568;25.814;2023-11-21T00:02:41;12.27;;;5.18;;
59649;SDS011;46162;57.568;25.814;2023-11-21T00:05:11;13.70;;;5.13;;
59649;SDS011;46162;57.568;25.814;2023-11-21T00:07:40;15.05;;;6.43;;
59649;SDS011;46162;57.568;25.814;2023-11-21T00:10:11;12.90;;;5.35;;
59649;SDS011;46162;57.568;25.814;2023-11-21T00:12:43;14.48;;;6.25;;
59649;SDS011;46162;57.568;25.814;2023-11-21T00:15:11;13.02;;;5.82;;
59649;SDS011;46162;57.568;25.814;2023-11-21T00:17:40;14.75;;;6.65;;
59649;SDS011;46162;57.568;25.814;2023-11-21T00:20:10;15.93;;;6.47;;
59649;SDS011;46162;57.568;25.814;2023-11-21T00:22:40;15.65;;;6.38;;
59649;SDS011;46162;57.568;25.814;2023-11-21T00:25:11;13.60;;;6.38;;
59649;SDS011;46162;57.568;25.814;2023-11-21T00:27:42;15.05;;;6.80;;
59649;SDS011;46162;57.568;25.814;2023-11-21T00:30:11;15.25;;;6.28;;
59649;SDS011;46162;57.568;25.814;2023-11-21T00:32:41;17.33;;;7.73;;
59649;SDS011;46162;57.568;25.814;2023-11-21T00:35:10;20.25;;;9.02;;
59649;SDS011;46162;57.568;25.814;2023-11-21T00:37:38;16.23;;;6.85;;
59649;SDS011;46162;57.568;25.814;2023-11-21T00:40:07;17.10;;;7.68;;
59649;SDS011;46162;57.568;25.814;2023-11-21T00:42:39;21.83;;;8.35;;
59649;SDS011;46162;57.568;25.814;2023-11-21T00:45:08;15.70;;;7.55;;
59649;SDS011;46162;57.568;25.814;2023-11-21T00:47:37;15.38;;;6.60;;
59649;SDS011;46162;57.568;25.814;2023-11-21T00:50:06;20.15;;;8.52;;
59649;SDS011;46162;57.568;25.814;2023-11-21T00:52:36;18.77;;;8.40;;
59649;SDS011;46162;57.568;25.814;2023-11-21T00:55:05;20.35;;;8.52;;
59649;SDS011;46162;57.568;25.814;2023-11-21T00:57:35;20.35;;;7.53;;
59649;SDS011;46162;57.568;25.814;2023-11-21T01:00:06;21.60;;;9.88;;
59649;SDS011;46162;57.568;25.814;2023-11-21T01:02:40;19.85;;;8.10;;
59649;SDS011;46162;57.568;25.814;2023-11-21T01:05:10;16.42;;;8.10;;
59649;SDS011;46162;57.568;25.814;2023-11-21T01:07:39;19.10;;;8.57;;
59649;SDS011;46162;57.568;25.814;2023-11-21T01:10:08;18.52;;;8.75;;
59649;SDS011;46162;57.568;25.814;2023-11-21T01:12:37;16.75;;;8.10;;
59649;SDS011;46162;57.568;25.814;2023-11-21T01:15:08;18.08;;;8.45;;
59649;SDS011;46162;57.568;25.814;2023-11-21T01:17:39;17.45;;;7.97;;
59649;SDS011;46162;57.568;25.814;2023-11-21T01:20:08;20.92;;;8.75;;
59649;SDS011;46162;57.568;25.814;2023-11-21T01:22:39;20.35;;;8.43;;
59649;SDS011;46162;57.568;25.814;2023-11-21T01:25:08;19.33;;;8.68;;
59649;SDS011;46162;57.568;25.814;2023-11-21T01:27:37;18.35;;;8.68;;
59649;SDS011;46162;57.568;25.814;2023-11-21T01:30:08;18.35;;;9.07;;
59649;SDS011;46162;57.568;25.814;2023-11-21T01:32:37;20.05;;;8.95;;
59649;SDS011;46162;57.568;25.814;2023-11-21T01:35:08;17.38;;;8.40;;
59649;SDS011;46162;57.568;25.814;2023-11-21T01:37:38;20.88;;;7.80;;
59649;SDS011;46162;57.568;25.814;2023-11-21T01:40:07;18.60;;;8.23;;
59649;SDS011;46162;57.568;25.814;2023-11-21T01:42:41;20.70;;;9.63;;
59649;SDS011;46162;57.568;25.814;2023-11-21T01:45:13;22.10;;;9.45;;
59649;SDS011;46162;57.568;25.814;2023-11-21T01:47:42;19.88;;;9.43;;
59649;SDS011;46162;57.568;25.814;2023-11-21T01:50:15;22.70;;;8.43;;
59649;SDS011;46162;57.568;25.814;2023-11-21T01:52:45;19.63;;;9.05;;
59649;SDS011;46162;57.568;25.814;2023-11-21T01:55:16;17.35;;;7.88;;
59649;SDS011;46162;57.568;25.814;2023-11-21T01:57:54;16.90;;;7.63;;
59649;SDS011;46162;57.568;25.814;2023-11-21T02:00:26;18.15;;;7.40;;
59649;SDS011;46162;57.568;25.814;2023-11-21T02:02:56;19.73;;;7.80;;
59649;SDS011;46162;57.568;25.814;2023-11-21T02:05:26;18.25;;;7.80;;
59649;SDS011;46162;57.568;25.814;2023-11-21T02:07:58;22.08;;;8.50;;
59649;SDS011;46162;57.568;25.814;2023-11-21T02:10:27;17.90;;;7.60;;
59649;SDS011;46162;57.568;25.814;2023-11-21T02:12:58;19.45;;;7.68;;
59649;SDS011;46162;57.568;25.814;2023-11-21T02:15:31;18.27;;;7.93;;
59649;SDS011;46162;57.568;25.814;2023-11-21T02:17:59;17.87;;;8.40;;
59649;SDS011;46162;57.568;25.814;2023-11-21T02:20:30;20.27;;;8.80;;
59649;SDS011;46162;57.568;25.814;2023-11-21T02:23:04;22.80;;;8.55;;
59649;SDS011;46162;57.568;25.814;2023-11-21T02:25:33;15.95;;;7.70;;
59649;SDS011;46162;57.568;25.814;2023-11-21T02:28:04;19.00;;;8.63;;
59649;SDS011;46162;57.568;25.814;2023-11-21T02:30:35;19.75;;;9.25;;
59649;SDS011;46162;57.568;25.814;2023-11-21T02:33:04;21.48;;;8.43;;
59649;SDS011;46162;57.568;25.814;2023-11-21T02:35:33;14.52;;;7.10;;
59649;SDS011;46162;57.568;25.814;2023-11-21T02:38:02;17.73;;;8.27;;
59649;SDS011;46162;57.568;25.814;2023-11-21T02:40:32;17.88;;;8.02;;
59649;SDS011;46162;57.568;25.814;2023-11-21T02:43:00;18.70;;;7.57;;
59649;SDS011;46162;57.568;25.814;2023-11-21T02:45:29;21.10;;;7.72;;
59649;SDS011;46162;57.568;25.814;2023-11-21T02:47:58;16.25;;;6.88;;
59649;SDS011;46162;57.568;25.814;2023-11-21T02:50:27;18.38;;;7.93;;
59649;SDS011;46162;57.568;25.814;2023-11-21T02:52:56;15.55;;;7.32;;
59649;SDS011;46162;57.568;25.814;2023-11-21T02:55:27;17.25;;;8.13;;
59649;SDS011;46162;57.568;25.814;2023-11-21T02:57:57;20.15;;;7.78;;
59649;SDS011;46162;57.568;25.814;2023-11-21T03:00:26;15.40;;;7.75;;
59649;SDS011;46162;57.568;25.814;2023-11-21T03:02:55;13.55;;;6.70;;
59649;SDS011;46162;57.568;25.814;2023-11-21T03:05:25;15.40;;;6.90;;
59649;SDS011;46162;57.568;25.814;2023-11-21T03:07:56;15.32;;;6.95;;
59649;SDS011;46162;57.568;25.814;2023-11-21T03:10:25;15.15;;;6.90;;
59649;SDS011;46162;57.568;25.814;2023-11-21T03:12:55;18.33;;;7.57;;
59649;SDS011;46162;57.568;25.814;2023-11-21T03:15:25;20.23;;;7.82;;
59649;SDS011;46162;57.568;25.814;2023-11-21T03:17:54;15.15;;;7.30;;
59649;SDS011;46162;57.568;25.814;2023-11-21T03:20:23;16.40;;;7.40;;
59649;SDS011;46162;57.568;25.814;2023-11-21T03:22:52;14.15;;;6.65;;
59649;SDS011;46162;57.568;25.814;2023-11-21T03:25:21;17.90;;;7.55;;
59649;SDS011;46162;57.568;25.814;2023-11-21T03:27:51;16.35;;;7.60;;
59649;SDS011;46162;57.568;25.814;2023-11-21T03:30:20;16.98;;;7.82;;
59649;SDS011;46162;57.568;25.814;2023-11-21T03:32:50;17.10;;;7.55;;
59649;SDS011;46162;57.568;25.814;2023-11-21T03:35:19;19.38;;;7.75;;
59649;SDS011;46162;57.568;25.814;2023-11-21T03:37:48;18.35;;;7.30;;
59649;SDS011;46162;57.568;25.814;2023-11-21T03:40:17;15.00;;;6.80;;
59649;SDS011;46162;57.568;25.814;2023-11-21T03:42:46;16.50;;;7.43;;
59649;SDS011;46162;57.568;25.814;2023-11-21T03:45:15;15.60;;;7.00;;
59649;SDS011;46162;57.568;25.814;2023-11-21T03:47:44;17.75;;;7.40;;
59649;SDS011;46162;57.568;25.814;2023-11-21T03:50:14;17.48;;;6.40;;
59649;SDS011;46162;57.568;25.814;2023-11-21T03:52:43;14.48;;;7.32;;
59649;SDS011;46162;57.568;25.814;2023-11-21T03:55:12;15.80;;;6.85;;
59649;SDS011;46162;57.568;25.814;2023-11-21T03:57:42;13.82;;;6.68;;
59649;SDS011;46162;57.568;25.814;2023-11-21T04:00:11;16.55;;;7.47;;
59649;SDS011;46162;57.568;25.814;2023-11-21T04:02:40;16.77;;;6.97;;
59649;SDS011;46162;57.568;25.814;2023-11-21T04:05:09;19.50;;;7.22;;
59649;SDS011;46162;57.568;25.814;2023-11-21T04:07:39;14.93;;;6.60;;
59649;SDS011;46162;57.568;25.814;2023-11-21T04:10:08;13.80;;;6.60;;
59649;SDS011;46162;57.568;25.814;2023-11-21T04:12:40;17.27;;;7.60;;
59649;SDS011;46162;57.568;25.814;2023-11-21T04:15:09;15.57;;;6.45;;
59649;SDS011;46162;57.568;25.814;2023-11-21T04:17:38;16.42;;;6.85;;
59649;SDS011;46162;57.568;25.814;2023-11-21T04:20:07;14.05;;;6.55;;
59649;SDS011;46162;57.568;25.814;2023-11-21T04:22:39;15.17;;;6.40;;
59649;SDS011;46162;57.568;25.814;2023-11-21T04:25:13;17.60;;;6.93;;
59649;SDS011;46162;57.568;25.814;2023-11-21T04:27:43;15.38;;;6.30;;
59649;SDS011;46162;57.568;25.814;2023-11-21T04:30:14;16.27;;;7.20;;
59649;SDS011;46162;57.568;25.814;2023-11-21T04:32:43;15.55;;;7.38;;
59649;SDS011;46162;57.568;25.814;2023-11-21T04:35:12;13.90;;;6.18;;
59649;SDS011;46162;57.568;25.814;2023-11-21T04:37:43;13.32;;;6.22;;
59649;SDS011;46162;57.568;25.814;2023-11-21T04:40:12;18.63;;;6.90;;
59649;SDS011;46162;57.568;25.814;2023-11-21T04:42:41;13.00;;;5.72;;
59649;SDS011;46162;57.568;25.814;2023-11-21T04:45:10;15.98;;;6.53;;
59649;SDS011;46162;57.568;25.814;2023-11-21T04:47:39;14.10;;;6.13;;
59649;SDS011;46162;57.568;25.814;2023-11-21T04:50:08;13.48;;;6.50;;
59649;SDS011;46162;57.568;25.814;2023-11-21T04:52:38;15.90;;;6.55;;
59649;SDS011;46162;57.568;25.814;2023-11-21T04:55:08;15.70;;;6.93;;
59649;SDS011;46162;57.568;25.814;2023-11-21T04:57:40;14.57;;;6.38;;
59649;SDS011;46162;57.568;25.814;2023-11-21T05:00:11;11.95;;;5.30;;
59649;SDS011;46162;57.568;25.814;2023-11-21T05:02:43;14.65;;;6.72;;
59649;SDS011;46162;57.568;25.814;2023-11-21T05:05:12;12.60;;;6.50;;
59649;SDS011;46162;57.568;25.814;2023-11-21T05:07:41;13.55;;;6.38;;
59649;SDS011;46162;57.568;25.814;2023-11-21T05:10:11;14.18;;;6.38;;
59649;SDS011;46162;57.568;25.814;2023-11-21T05:12:42;11.30;;;5.68;;
59649;SDS011;46162;57.568;25.814;2023-11-21T05:15:13;15.57;;;5.97;;
59649;SDS011;46162;57.568;25.814;2023-11-21T05:17:44;13.23;;;6.10;;
59649;SDS011;46162;57.568;25.814;2023-11-21T05:20:14;13.70;;;6.57;;
59649;SDS011;46162;57.568;25.814;2023-11-21T05:22:45;12.00;;;6.10;;
59649;SDS011;46162;57.568;25.814;2023-11-21T05:25:17;12.43;;;6.22;;
59649;SDS011;46162;57.568;25.814;2023-11-21T05:27:49;13.25;;;6.25;;
59649;SDS011;46162;57.568;25.814;2023-11-21T05:30:17;13.45;;;6.15;;
59649;SDS011;46162;57.568;25.814;2023-11-21T05:32:46;15.57;;;6.50;;
59649;SDS011;46162;57.568;25.814;2023-11-21T05:35:17;16.92;;;6.90;;
59649;SDS011;46162;57.568;25.814;2023-11-21T05:37:45;14.20;;;6.13;;
59649;SDS011;46162;57.568;25.814;2023-11-21T05:40:17;11.25;;;5.57;;
59649;SDS011;46162;57.568;25.814;2023-11-21T05:42:46;15.55;;;6.95;;
59649;SDS011;46162;57.568;25.814;2023-11-21T05:45:14;12.50;;;6.22;;
59649;SDS011;46162;57.568;25.814;2023-11-21T05:47:44;14.57;;;5.68;;
59649;SDS011;46162;57.568;25.814;2023-11-21T05:50:16;13.57;;;6.13;;
59649;SDS011;46162;57.568;25.814;2023-11-21T05:52:46;15.05;;;6.20;;
59649;SDS011;46162;57.568;25.814;2023-11-21T05:55:17;14.82;;;6.00;;
59649;SDS011;46162;57.568;25.814;2023-11-21T05:57:48;13.23;;;6.25;;
59649;SDS011;46162;57.568;25.814;2023-11-21T06:00:16;15.70;;;6.88;;
59649;SDS011;46162;57.568;25.814;2023-11-21T06:02:48;14.18;;;6.18;;
59649;SDS011;46162;57.568;25.814;2023-11-21T06:05:21;16.67;;;6.72;;
59649;SDS011;46162;57.568;25.814;2023-11-21T06:07:52;14.70;;;6.60;;
59649;SDS011;46162;57.568;25.814;2023-11-21T06:10:23;13.93;;;6.38;;
59649;SDS011;46162;57.568;25.814;2023-11-21T06:12:52;13.73;;;6.78;;
59649;SDS011;46162;57.568;25.814;2023-11-21T06:15:21;19.20;;;6.25;;
59649;SDS011;46162;57.568;25.814;2023-11-21T06:17:50;13.93;;;5.97;;
59649;SDS011;46162;57.568;25.814;2023-11-21T06:20:20;13.13;;;6.55;;
59649;SDS011;46162;57.568;25.814;2023-11-21T06:22:50;14.50;;;6.22;;
59649;SDS011;46162;57.568;25.814;2023-11-21T06:25:19;15.20;;;6.45;;
59649;SDS011;46162;57.568;25.814;2023-11-21T06:27:50;13.88;;;6.38;;
59649;SDS011;46162;57.568;25.814;2023-11-21T06:30:21;14.07;;;5.93;;
59649;SDS011;46162;57.568;25.814;2023-11-21T06:32:50;12.90;;;5.78;;
59649;SDS011;46162;57.568;25.814;2023-11-21T06:35:20;16.70;;;6.88;;
59649;SDS011;46162;57.568;25.814;2023-11-21T06:37:49;13.32;;;5.85;;
59649;SDS011;46162;57.568;25.814;2023-11-21T06:40:19;14.43;;;6.00;;
59649;SDS011;46162;57.568;25.814;2023-11-21T06:42:50;15.15;;;7.07;;
59649;SDS011;46162;57.568;25.814;2023-11-21T06:45:18;15.70;;;6.85;;
59649;SDS011;46162;57.568;25.814;2023-11-21T06:47:48;20.55;;;7.65;;
59649;SDS011;46162;57.568;25.814;2023-11-21T06:50:18;17.40;;;7.40;;
59649;SDS011;46162;57.568;25.814;2023-11-21T06:52:48;16.02;;;6.05;;
59649;SDS011;46162;57.568;25.814;2023-11-21T06:55:16;16.20;;;6.72;;
59649;SDS011;46162;57.568;25.814;2023-11-21T06:57:45;13.02;;;6.22;;
59649;SDS011;46162;57.568;25.814;2023-11-21T07:00:17;12.43;;;6.40;;
59649;SDS011;46162;57.568;25.814;2023-11-21T07:05:14;16.92;;;6.57;;
59649;SDS011;46162;57.568;25.814;2023-11-21T07:07:48;15.13;;;6.45;;
59649;SDS011;46162;57.568;25.814;2023-11-21T07:10:17;16.30;;;7.78;;
59649;SDS011;46162;57.568;25.814;2023-11-21T07:12:46;12.55;;;6.60;;
59649;SDS011;46162;57.568;25.814;2023-11-21T07:15:17;13.10;;;6.75;;
59649;SDS011;46162;57.568;25.814;2023-11-21T07:17:46;11.30;;;5.63;;
59649;SDS011;46162;57.568;25.814;2023-11-21T07:20:15;13.10;;;6.15;;
59649;SDS011;46162;57.568;25.814;2023-11-21T07:22:45;15.13;;;6.50;;
59649;SDS011;46162;57.568;25.814;2023-11-21T07:25:14;13.23;;;5.55;;
59649;SDS011;46162;57.568;25.814;2023-11-21T07:27:43;16.40;;;6.93;;
59649;SDS011;46162;57.568;25.814;2023-11-21T07:30:12;13.32;;;6.43;;
59649;SDS011;46162;57.568;25.814;2023-11-21T07:32:43;23.38;;;11.73;;
59649;SDS011;46162;57.568;25.814;2023-11-21T07:35:13;22.63;;;11.73;;
59649;SDS011;46162;57.568;25.814;2023-11-21T07:37:42;14.48;;;8.23;;
59649;SDS011;46162;57.568;25.814;2023-11-21T07:40:12;14.38;;;7.10;;
59649;SDS011;46162;57.568;25.814;2023-11-21T07:42:40;12.38;;;5.85;;
59649;SDS011;46162;57.568;25.814;2023-11-21T07:45:10;13.57;;;6.25;;
59649;SDS011;46162;57.568;25.814;2023-11-21T07:47:39;17.83;;;7.72;;
59649;SDS011;46162;57.568;25.814;2023-11-21T07:50:10;13.82;;;6.30;;
59649;SDS011;46162;57.568;25.814;2023-11-21T07:52:40;14.45;;;7.65;;
59649;SDS011;46162;57.568;25.814;2023-11-21T07:55:09;15.18;;;6.50;;
59649;SDS011;46162;57.568;25.814;2023-11-21T07:57:38;13.60;;;6.18;;
59649;SDS011;46162;57.568;25.814;2023-11-21T08:00:07;13.60;;;5.93;;
59649;SDS011;46162;57.568;25.814;2023-11-21T08:02:39;12.60;;;6.00;;
59649;SDS011;46162;57.568;25.814;2023-11-21T08:05:11;14.98;;;6.30;;
59649;SDS011;46162;57.568;25.814;2023-11-21T08:07:53;13.05;;;6.32;;
59649;SDS011;46162;57.568;25.814;2023-11-21T08:10:23;16.83;;;6.15;;
59649;SDS011;46162;57.568;25.814;2023-11-21T08:12:52;16.67;;;6.55;;
59649;SDS011;46162;57.568;25.814;2023-11-21T08:15:20;15.43;;;6.35;;
59649;SDS011;46162;57.568;25.814;2023-11-21T08:17:49;16.95;;;6.53;;
59649;SDS011;46162;57.568;25.814;2023-11-21T08:20:19;15.43;;;6.90;;
59649;SDS011;46162;57.568;25.814;2023-11-21T08:22:50;16.20;;;7.07;;
59649;SDS011;46162;57.568;25.814;2023-11-21T08:25:19;18.95;;;8.10;;
59649;SDS011;46162;57.568;25.814;2023-11-21T08:27:49;16.13;;;7.07;;
59649;SDS011;46162;57.568;25.814;2023-11-21T08:30:17;14.85;;;7.38;;
59649;SDS011;46162;57.568;25.814;2023-11-21T08:32:48;14.77;;;7.30;;
59649;SDS011;46162;57.568;25.814;2023-11-21T08:35:19;16.75;;;6.30;;
59649;SDS011;46162;57.568;25.814;2023-11-21T08:37:50;15.75;;;6.72;;
59649;SDS011;46162;57.568;25.814;2023-11-21T08:40:20;14.98;;;6.43;;
59649;SDS011;46162;57.568;25.814;2023-11-21T08:42:49;14.10;;;7.15;;
59649;SDS011;46162;57.568;25.814;2023-11-21T08:45:19;17.45;;;6.53;;
59649;SDS011;46162;57.568;25.814;2023-11-21T08:47:48;15.90;;;7.38;;
59649;SDS011;46162;57.568;25.814;2023-11-21T08:50:17;19.17;;;7.40;;
59649;SDS011;46162;57.568;25.814;2023-11-21T08:52:47;13.48;;;6.88;;
59649;SDS011;46162;57.568;25.814;2023-11-21T08:55:16;14.50;;;6.43;;
59649;SDS011;46162;57.568;25.814;2023-11-21T08:57:46;17.48;;;7.20;;
59649;SDS011;46162;57.568;25.814;2023-11-21T09:00:15;21.15;;;8.13;;
59649;SDS011;46162;57.568;25.814;2023-11-21T09:02:48;20.73;;;8.50;;
59649;SDS011;46162;57.568;25.814;2023-11-21T09:05:17;23.35;;;8.00;;
59649;SDS011;46162;57.568;25.814;2023-11-21T09:07:49;20.90;;;7.43;;
59649;SDS011;46162;57.568;25.814;2023-11-21T09:10:18;23.67;;;8.10;;
59649;SDS011;46162;57.568;25.814;2023-11-21T09:12:47;32.35;;;8.63;;
59649;SDS011;46162;57.568;25.814;2023-11-21T09:15:16;33.92;;;8.77;;
59649;SDS011;46162;57.568;25.814;2023-11-21T09:17:45;24.92;;;9.30;;
59649;SDS011;46162;57.568;25.814;2023-11-21T09:20:14;25.30;;;7.78;;
59649;SDS011;46162;57.568;25.814;2023-11-21T09:22:43;20.67;;;8.20;;
59649;SDS011;46162;57.568;25.814;2023-11-21T09:25:14;42.30;;;8.10;;
59649;SDS011;46162;57.568;25.814;2023-11-21T09:27:44;20.67;;;7.57;;
59649;SDS011;46162;57.568;25.814;2023-11-21T09:30:13;18.88;;;7.35;;
59649;SDS011;46162;57.568;25.814;2023-11-21T09:32:42;16.80;;;8.05;;
59649;SDS011;46162;57.568;25.814;2023-11-21T09:35:12;15.50;;;7.40;;
59649;SDS011;46162;57.568;25.814;2023-11-21T09:37:43;18.27;;;7.70;;
59649;SDS011;46162;57.568;25.814;2023-11-21T09:40:17;14.02;;;6.65;;
59649;SDS011;46162;57.568;25.814;2023-11-21T09:42:53;18.15;;;7.35;;
59649;SDS011;46162;57.568;25.814;2023-11-21T09:45:27;22.90;;;7.30;;
59649;SDS011;46162;57.568;25.814;2023-11-21T09:47:58;17.77;;;8.02;;
59649;SDS011;46162;57.568;25.814;2023-11-21T09:50:27;23.33;;;10.90;;
59649;SDS011;46162;57.568;25.814;2023-11-21T09:53:04;19.33;;;7.57;;
59649;SDS011;46162;57.568;25.814;2023-11-21T09:55:44;18.95;;;6.22;;
59649;SDS011;46162;57.568;25.814;2023-11-21T09:58:14;18.00;;;6.80;;
59649;SDS011;46162;57.568;25.814;2023-11-21T10:00:44;16.98;;;6.97;;
59649;SDS011;46162;57.568;25.814;2023-11-21T10:03:13;12.15;;;6.53;;
59649;SDS011;46162;57.568;25.814;2023-11-21T10:05:44;16.17;;;7.03;;
59649;SDS011;46162;57.568;25.814;2023-11-21T10:08:16;17.08;;;7.05;;
59649;SDS011;46162;57.568;25.814;2023-11-21T10:10:47;17.77;;;6.95;;
59649;SDS011;46162;57.568;25.814;2023-11-21T10:13:21;18.30;;;7.40;;
59649;SDS011;46162;57.568;25.814;2023-11-21T10:15:50;28.10;;;8.20;;
59649;SDS011;46162;57.568;25.814;2023-11-21T10:18:20;13.88;;;6.82;;
59649;SDS011;46162;57.568;25.814;2023-11-21T10:20:52;16.77;;;7.55;;
59649;SDS011;46162;57.568;25.814;2023-11-21T10:23:22;17.63;;;8.80;;
59649;SDS011;46162;57.568;25.814;2023-11-21T10:25:54;19.57;;;8.77;;
59649;SDS011;46162;57.568;25.814;2023-11-21T10:28:35;15.93;;;8.88;;
59649;SDS011;46162;57.568;25.814;2023-11-21T10:31:06;21.08;;;9.57;;
59649;SDS011;46162;57.568;25.814;2023-11-21T10:33:36;21.03;;;8.97;;
59649;SDS011;46162;57.568;25.814;2023-11-21T10:36:06;20.52;;;9.80;;
59649;SDS011;46162;57.568;25.814;2023-11-21T10:38:41;20.05;;;10.27;;
59649;SDS011;46162;57.568;25.814;2023-11-21T10:41:14;17.42;;;9.35;;
59649;SDS011;46162;57.568;25.814;2023-11-21T10:43:43;19.38;;;9.77;;
59649;SDS011;46162;57.568;25.814;2023-11-21T10:46:12;24.10;;;9.68;;
59649;SDS011;46162;57.568;25.814;2023-11-21T10:48:42;17.02;;;8.20;;
59649;SDS011;46162;57.568;25.814;2023-11-21T10:51:11;16.33;;;7.95;;
59649;SDS011;46162;57.568;25.814;2023-11-21T10:53:40;20.95;;;8.13;;
59649;SDS011;46162;57.568;25.814;2023-11-21T10:56:12;21.27;;;8.07;;
59649;SDS011;46162;57.568;25.814;2023-11-21T10:58:46;16.05;;;6.82;;
59649;SDS011;46162;57.568;25.814;2023-11-21T11:01:17;14.13;;;7.00;;
59649;SDS011;46162;57.568;25.814;2023-11-21T11:03:49;14.93;;;7.47;;
59649;SDS011;46162;57.568;25.814;2023-11-21T11:06:21;13.60;;;5.95;;
59649;SDS011;46162;57.568;25.814;2023-11-21T11:08:54;16.10;;;6.45;;
59649;SDS011;46162;57.568;25.814;2023-11-21T11:11:25;14.20;;;7.07;;
59649;SDS011;46162;57.568;25.814;2023-11-21T11:13:54;16.60;;;7.60;;
59649;SDS011;46162;57.568;25.814;2023-11-21T11:18:55;27.73;;;6.65;;
59649;SDS011;46162;57.568;25.814;2023-11-21T11:21:26;16.50;;;7.18;;
59649;SDS011;46162;57.568;25.814;2023-11-21T11:24:16;13.73;;;6.53;;
59649;SDS011;46162;57.568;25.814;2023-11-21T11:27:06;17.33;;;6.65;;
59649;SDS011;46162;57.568;25.814;2023-11-21T11:29:46;15.98;;;6.47;;
59649;SDS011;46162;57.568;25.814;2023-11-21T11:32:27;17.38;;;7.00;;
59649;SDS011;46162;57.568;25.814;2023-11-21T11:35:10;13.32;;;6.35;;
59649;SDS011;46162;57.568;25.814;2023-11-21T11:37:45;14.68;;;6.72;;
59649;SDS011;46162;57.568;25.814;2023-11-21T11:40:14;15.32;;;6.53;;
59649;SDS011;46162;57.568;25.814;2023-11-21T11:42:57;14.57;;;6.03;;
59649;SDS011;46162;57.568;25.814;2023-11-21T11:45:31;13.45;;;6.47;;
59649;SDS011;46162;57.568;25.814;2023-11-21T11:48:02;15.55;;;7.05;;
59649;SDS011;46162;57.568;25.814;2023-11-21T11:50:33;20.08;;;7.13;;
59649;SDS011;46162;57.568;25.814;2023-11-21T11:55:53;13.55;;;6.35;;
59649;SDS011;46162;57.568;25.814;2023-11-21T11:58:51;13.75;;;6.65;;
59649;SDS011;46162;57.568;25.814;2023-11-21T12:01:20;14.00;;;7.10;;
59649;SDS011;46162;57.568;25.814;2023-11-21T12:06:51;19.55;;;7.65;;
59649;SDS011;46162;57.568;25.814;2023-11-21T12:09:22;20.88;;;8.50;;
59649;SDS011;46162;57.568;25.814;2023-11-21T12:11:53;16.33;;;7.43;;
59649;SDS011;46162;57.568;25.814;2023-11-21T12:14:25;17.70;;;7.20;;
59649;SDS011;46162;57.568;25.814;2023-11-21T12:16:54;18.60;;;6.95;;
59649;SDS011;46162;57.568;25.814;2023-11-21T12:19:23;19.02;;;6.88;;
59649;SDS011;46162;57.568;25.814;2023-11-21T12:24:23;16.50;;;6.63;;
59649;SDS011;46162;57.568;25.814;2023-11-21T12:26:52;17.10;;;6.65;;
59649;SDS011;46162;57.568;25.814;2023-11-21T12:29:21;14.10;;;7.05;;
59649;SDS011;46162;57.568;25.814;2023-11-21T12:31:51;15.98;;;6.97;;
59649;SDS011;46162;57.568;25.814;2023-11-21T12:34:21;15.55;;;8.35;;
59649;SDS011;46162;57.568;25.814;2023-11-21T12:36:50;17.48;;;7.85;;
59649;SDS011;46162;57.568;25.814;2023-11-21T12:41:50;15.10;;;7.22;;
59649;SDS011;46162;57.568;25.814;2023-11-21T12:44:19;14.70;;;6.93;;
59649;SDS011;46162;57.568;25.814;2023-11-21T12:46:55;16.33;;;7.68;;
59649;SDS011;46162;57.568;25.814;2023-11-21T12:49:24;14.32;;;7.15;;
59649;SDS011;46162;57.568;25.814;2023-11-21T12:51:53;20.00;;;8.27;;
59649;SDS011;46162;57.568;25.814;2023-11-21T12:54:22;23.45;;;8.38;;
59649;SDS011;46162;57.568;25.814;2023-11-21T12:56:50;19.23;;;8.02;;
59649;SDS011;46162;57.568;25.814;2023-11-21T12:59:20;15.50;;;7.82;;
59649;SDS011;46162;57.568;25.814;2023-11-21T13:01:49;17.30;;;8.15;;
59649;SDS011;46162;57.568;25.814;2023-11-21T13:04:20;19.23;;;9.20;;
59649;SDS011;46162;57.568;25.814;2023-11-21T13:06:49;24.17;;;11.45;;
59649;SDS011;46162;57.568;25.814;2023-11-21T13:09:18;18.27;;;10.18;;
59649;SDS011;46162;57.568;25.814;2023-11-21T13:11:48;18.40;;;10.00;;
59649;SDS011;46162;57.568;25.814;2023-11-21T13:14:18;26.73;;;11.60;;
59649;SDS011;46162;57.568;25.814;2023-11-21T13:16:46;21.98;;;10.38;;
59649;SDS011;46162;57.568;25.814;2023-11-21T13:19:15;21.40;;;10.20;;
59649;SDS011;46162;57.568;25.814;2023-11-21T13:21:47;19.40;;;9.48;;
59649;SDS011;46162;57.568;25.814;2023-11-21T13:24:16;19.15;;;10.68;;
59649;SDS011;46162;57.568;25.814;2023-11-21T13:26:45;21.23;;;11.25;;
59649;SDS011;46162;57.568;25.814;2023-11-21T13:29:14;19.38;;;10.13;;
59649;SDS011;46162;57.568;25.814;2023-11-21T13:31:43;19.02;;;10.02;;
59649;SDS011;46162;57.568;25.814;2023-11-21T13:34:13;19.83;;;9.40;;
59649;SDS011;46162;57.568;25.814;2023-11-21T13:36:50;19.92;;;10.38;;
59649;SDS011;46162;57.568;25.814;2023-11-21T13:39:25;22.88;;;10.18;;
59649;SDS011;46162;57.568;25.814;2023-11-21T13:41:55;21.25;;;10.88;;
59649;SDS011;46162;57.568;25.814;2023-11-21T13:44:24;21.80;;;10.73;;
59649;SDS011;46162;57.568;25.814;2023-11-21T13:47:01;20.88;;;10.70;;
59649;SDS011;46162;57.568;25.814;2023-11-21T13:49:32;19.65;;;10.18;;
59649;SDS011;46162;57.568;25.814;2023-11-21T13:52:09;20.77;;;10.95;;
59649;SDS011;46162;57.568;25.814;2023-11-21T13:54:42;28.27;;;11.15;;
59649;SDS011;46162;57.568;25.814;2023-11-21T13:57:11;23.13;;;10.70;;
59649;SDS011;46162;57.568;25.814;2023-11-21T13:59:40;20.60;;;9.88;;
59649;SDS011;46162;57.568;25.814;2023-11-21T14:02:11;18.98;;;9.63;;
59649;SDS011;46162;57.568;25.814;2023-11-21T14:04:45;23.00;;;10.60;;
59649;SDS011;46162;57.568;25.814;2023-11-21T14:07:24;20.25;;;10.20;;
59649;SDS011;46162;57.568;25.814;2023-11-21T14:10:03;22.48;;;9.25;;
59649;SDS011;46162;57.568;25.814;2023-11-21T14:12:34;16.80;;;8.63;;
59649;SDS011;46162;57.568;25.814;2023-11-21T14:15:06;17.38;;;8.65;;
59649;SDS011;46162;57.568;25.814;2023-11-21T14:17:37;16.58;;;8.18;;
59649;SDS011;46162;57.568;25.814;2023-11-21T14:20:10;18.30;;;8.38;;
59649;SDS011;46162;57.568;25.814;2023-11-21T14:22:45;23.27;;;8.55;;
59649;SDS011;46162;57.568;25.814;2023-11-21T14:25:14;18.70;;;7.37;;
59649;SDS011;46162;57.568;25.814;2023-11-21T14:27:44;14.50;;;7.45;;
59649;SDS011;46162;57.568;25.814;2023-11-21T14:30:13;16.02;;;7.75;;
59649;SDS011;46162;57.568;25.814;2023-11-21T14:32:46;14.57;;;6.97;;
59649;SDS011;46162;57.568;25.814;2023-11-21T14:35:15;14.18;;;6.55;;
59649;SDS011;46162;57.568;25.814;2023-11-21T14:37:46;15.23;;;7.07;;
59649;SDS011;46162;57.568;25.814;2023-11-21T14:40:14;17.27;;;8.07;;
59649;SDS011;46162;57.568;25.814;2023-11-21T14:42:48;15.73;;;6.85;;
59649;SDS011;46162;57.568;25.814;2023-11-21T14:45:15;19.30;;;7.28;;
59649;SDS011;46162;57.568;25.814;2023-11-21T14:47:47;16.85;;;7.32;;
59649;SDS011;46162;57.568;25.814;2023-11-21T14:50:24;16.02;;;6.93;;
59649;SDS011;46162;57.568;25.814;2023-11-21T14:53:18;12.77;;;6.38;;
59649;SDS011;46162;57.568;25.814;2023-11-21T14:56:08;16.13;;;6.20;;